sensor_id;sensor_type;location;lat;lon;timestamp;P1;durP1;ratioP1;P2;durP2;ratioP2
42832;SDS011;64089;51.478;5.692;2023-04-01T00:00:18;7.47;;;1.35;;
42832;SDS011;64089;51.478;5.692;2023-04-01T00:02:44;2.17;;;1.23;;
42832;SDS011;64089;51.478;5.692;2023-04-01T00:05:10;4.15;;;1.10;;
42832;SDS011;64089;51.478;5.692;2023-04-01T00:07:37;2.55;;;1.15;;
42832;SDS011;64089;51.478;5.692;2023-04-01T00:10:04;2.97;;;1.10;;
42832;SDS011;64089;51.478;5.692;2023-04-01T00:12:31;3.10;;;1.13;;
42832;SDS011;64089;51.478;5.692;2023-04-01T00:14:57;2.38;;;1.30;;
42832;SDS011;64089;51.478;5.692;2023-04-01T00:17:23;1.70;;;1.10;;
42832;SDS011;64089;51.478;5.692;2023-04-01T00:19:49;6.75;;;1.10;;
42832;SDS011;64089;51.478;5.692;2023-04-01T00:22:14;3.95;;;1.15;;
42832;SDS011;64089;51.478;5.692;2023-04-01T00:24:40;3.75;;;1.58;;
42832;SDS011;64089;51.478;5.692;2023-04-01T00:27:06;4.57;;;1.27;;
42832;SDS011;64089;51.478;5.692;2023-04-01T00:29:33;6.88;;;1.52;;
42832;SDS011;64089;51.478;5.692;2023-04-01T00:31:59;3.40;;;1.33;;
42832;SDS011;64089;51.478;5.692;2023-04-01T00:34:24;11.88;;;2.17;;
42832;SDS011;64089;51.478;5.692;2023-04-01T00:36:50;1.30;;;1.02;;
42832;SDS011;64089;51.478;5.692;2023-04-01T00:39:17;4.15;;;1.55;;
42832;SDS011;64089;51.478;5.692;2023-04-01T00:41:43;2.90;;;1.23;;
42832;SDS011;64089;51.478;5.692;2023-04-01T00:44:42;2.63;;;1.15;;
42832;SDS011;64089;51.478;5.692;2023-04-01T00:47:02;4.20;;;1.42;;
42832;SDS011;64089;51.478;5.692;2023-04-01T00:49:31;4.80;;;1.33;;
42832;SDS011;64089;51.478;5.692;2023-04-01T00:52:01;2.53;;;0.85;;
42832;SDS011;64089;51.478;5.692;2023-04-01T00:54:30;3.22;;;1.08;;
42832;SDS011;64089;51.478;5.692;2023-04-01T00:57:01;3.72;;;1.27;;
42832;SDS011;64089;51.478;5.692;2023-04-01T00:59:33;4.97;;;1.10;;
42832;SDS011;64089;51.478;5.692;2023-04-01T01:02:03;1.77;;;0.90;;
42832;SDS011;64089;51.478;5.692;2023-04-01T01:04:31;3.35;;;0.80;;
42832;SDS011;64089;51.478;5.692;2023-04-01T01:12:35;2.25;;;0.88;;
42832;SDS011;64089;51.478;5.692;2023-04-01T01:17:59;4.38;;;0.90;;
42832;SDS011;64089;51.478;5.692;2023-04-01T01:34:22;1.80;;;0.95;;
42832;SDS011;64089;51.478;5.692;2023-04-01T01:37:22;4.32;;;0.82;;
42832;SDS011;64089;51.478;5.692;2023-04-01T01:39:55;1.83;;;1.08;;
42832;SDS011;64089;51.478;5.692;2023-04-01T01:42:25;1.08;;;0.82;;
42832;SDS011;64089;51.478;5.692;2023-04-01T01:44:53;1.73;;;1.00;;
42832;SDS011;64089;51.478;5.692;2023-04-01T01:47:22;1.40;;;0.68;;
42832;SDS011;64089;51.478;5.692;2023-04-01T01:49:49;1.95;;;0.90;;
42832;SDS011;64089;51.478;5.692;2023-04-01T01:52:17;1.15;;;0.65;;
42832;SDS011;64089;51.478;5.692;2023-04-01T01:54:50;4.05;;;0.95;;
42832;SDS011;64089;51.478;5.692;2023-04-01T01:57:17;3.15;;;1.13;;
42832;SDS011;64089;51.478;5.692;2023-04-01T01:59:48;1.23;;;0.93;;
42832;SDS011;64089;51.478;5.692;2023-04-01T02:02:15;1.55;;;1.10;;
42832;SDS011;64089;51.478;5.692;2023-04-01T02:04:42;1.88;;;1.10;;
42832;SDS011;64089;51.478;5.692;2023-04-01T02:07:20;2.95;;;1.13;;
42832;SDS011;64089;51.478;5.692;2023-04-01T02:09:50;1.85;;;1.00;;
42832;SDS011;64089;51.478;5.692;2023-04-01T02:12:16;1.52;;;1.02;;
42832;SDS011;64089;51.478;5.692;2023-04-01T02:17:26;3.25;;;1.77;;
42832;SDS011;64089;51.478;5.692;2023-04-01T02:20:01;2.70;;;1.10;;
42832;SDS011;64089;51.478;5.692;2023-04-01T02:22:34;4.85;;;2.35;;
42832;SDS011;64089;51.478;5.692;2023-04-01T02:25:06;1.23;;;1.05;;
42832;SDS011;64089;51.478;5.692;2023-04-01T02:27:44;2.67;;;1.65;;
42832;SDS011;64089;51.478;5.692;2023-04-01T02:30:11;2.25;;;1.45;;
42832;SDS011;64089;51.478;5.692;2023-04-01T02:32:39;2.17;;;1.80;;
42832;SDS011;64089;51.478;5.692;2023-04-01T02:35:06;4.55;;;2.30;;
42832;SDS011;64089;51.478;5.692;2023-04-01T02:37:35;11.07;;;2.67;;
42832;SDS011;64089;51.478;5.692;2023-04-01T02:40:02;5.90;;;2.33;;
42832;SDS011;64089;51.478;5.692;2023-04-01T02:42:31;4.13;;;2.70;;
42832;SDS011;64089;51.478;5.692;2023-04-01T02:44:57;6.03;;;2.60;;
42832;SDS011;64089;51.478;5.692;2023-04-01T02:47:22;5.97;;;3.42;;
42832;SDS011;64089;51.478;5.692;2023-04-01T02:49:48;4.80;;;3.03;;
42832;SDS011;64089;51.478;5.692;2023-04-01T02:52:14;6.82;;;3.50;;
42832;SDS011;64089;51.478;5.692;2023-04-01T02:54:39;6.88;;;4.05;;
42832;SDS011;64089;51.478;5.692;2023-04-01T02:57:05;5.75;;;3.33;;
42832;SDS011;64089;51.478;5.692;2023-04-01T02:59:31;6.70;;;3.67;;
42832;SDS011;64089;51.478;5.692;2023-04-01T03:01:57;8.13;;;3.97;;
42832;SDS011;64089;51.478;5.692;2023-04-01T03:04:23;9.50;;;3.75;;
42832;SDS011;64089;51.478;5.692;2023-04-01T03:06:48;6.75;;;4.03;;
42832;SDS011;64089;51.478;5.692;2023-04-01T03:09:14;9.57;;;4.43;;
42832;SDS011;64089;51.478;5.692;2023-04-01T03:11:40;8.45;;;3.72;;
42832;SDS011;64089;51.478;5.692;2023-04-01T03:14:06;5.82;;;4.03;;
42832;SDS011;64089;51.478;5.692;2023-04-01T03:16:32;10.45;;;3.58;;
42832;SDS011;64089;51.478;5.692;2023-04-01T03:18:58;6.85;;;3.40;;
42832;SDS011;64089;51.478;5.692;2023-04-01T03:21:25;7.93;;;3.83;;
42832;SDS011;64089;51.478;5.692;2023-04-01T03:23:50;5.50;;;3.38;;
42832;SDS011;64089;51.478;5.692;2023-04-01T03:26:16;4.28;;;3.28;;
42832;SDS011;64089;51.478;5.692;2023-04-01T03:28:43;6.40;;;3.55;;
42832;SDS011;64089;51.478;5.692;2023-04-01T03:31:09;5.63;;;3.03;;
42832;SDS011;64089;51.478;5.692;2023-04-01T03:33:35;6.03;;;3.00;;
42832;SDS011;64089;51.478;5.692;2023-04-01T03:36:01;8.07;;;3.88;;
42832;SDS011;64089;51.478;5.692;2023-04-01T03:38:28;5.75;;;3.53;;
42832;SDS011;64089;51.478;5.692;2023-04-01T03:40:54;5.78;;;3.45;;
42832;SDS011;64089;51.478;5.692;2023-04-01T03:43:19;5.95;;;3.33;;
42832;SDS011;64089;51.478;5.692;2023-04-01T03:45:48;5.78;;;3.25;;
42832;SDS011;64089;51.478;5.692;2023-04-01T03:48:15;5.68;;;3.38;;
42832;SDS011;64089;51.478;5.692;2023-04-01T03:50:41;7.40;;;4.05;;
42832;SDS011;64089;51.478;5.692;2023-04-01T03:53:07;6.65;;;3.15;;
42832;SDS011;64089;51.478;5.692;2023-04-01T03:55:35;4.50;;;3.13;;
42832;SDS011;64089;51.478;5.692;2023-04-01T03:58:01;4.45;;;3.05;;
42832;SDS011;64089;51.478;5.692;2023-04-01T04:00:30;11.18;;;4.10;;
42832;SDS011;64089;51.478;5.692;2023-04-01T04:02:56;6.60;;;3.72;;
42832;SDS011;64089;51.478;5.692;2023-04-01T04:05:22;6.72;;;4.20;;
42832;SDS011;64089;51.478;5.692;2023-04-01T04:07:49;7.00;;;3.38;;
42832;SDS011;64089;51.478;5.692;2023-04-01T04:10:15;8.50;;;3.90;;
42832;SDS011;64089;51.478;5.692;2023-04-01T04:12:41;6.50;;;3.72;;
42832;SDS011;64089;51.478;5.692;2023-04-01T04:15:07;8.35;;;4.43;;
42832;SDS011;64089;51.478;5.692;2023-04-01T04:17:33;4.53;;;3.30;;
42832;SDS011;64089;51.478;5.692;2023-04-01T04:19:59;8.80;;;4.13;;
42832;SDS011;64089;51.478;5.692;2023-04-01T04:22:25;4.88;;;3.47;;
42832;SDS011;64089;51.478;5.692;2023-04-01T04:24:50;5.50;;;3.60;;
42832;SDS011;64089;51.478;5.692;2023-04-01T04:27:16;6.40;;;3.90;;
42832;SDS011;64089;51.478;5.692;2023-04-01T04:29:42;6.55;;;3.78;;
42832;SDS011;64089;51.478;5.692;2023-04-01T04:32:07;6.93;;;4.00;;
42832;SDS011;64089;51.478;5.692;2023-04-01T04:34:33;7.18;;;3.90;;
42832;SDS011;64089;51.478;5.692;2023-04-01T04:36:59;5.50;;;3.78;;
42832;SDS011;64089;51.478;5.692;2023-04-01T04:39:25;10.00;;;4.32;;
42832;SDS011;64089;51.478;5.692;2023-04-01T04:41:50;7.70;;;4.53;;
42832;SDS011;64089;51.478;5.692;2023-04-01T04:44:16;6.28;;;3.92;;
42832;SDS011;64089;51.478;5.692;2023-04-01T04:46:41;7.07;;;4.50;;
42832;SDS011;64089;51.478;5.692;2023-04-01T04:49:07;8.38;;;4.20;;
42832;SDS011;64089;51.478;5.692;2023-04-01T04:51:33;7.20;;;4.53;;
42832;SDS011;64089;51.478;5.692;2023-04-01T04:54:00;8.55;;;4.70;;
42832;SDS011;64089;51.478;5.692;2023-04-01T04:56:27;8.35;;;4.65;;
42832;SDS011;64089;51.478;5.692;2023-04-01T04:58:52;8.07;;;3.97;;
42832;SDS011;64089;51.478;5.692;2023-04-01T05:01:18;7.05;;;3.90;;
42832;SDS011;64089;51.478;5.692;2023-04-01T05:03:45;6.70;;;3.85;;
42832;SDS011;64089;51.478;5.692;2023-04-01T05:06:11;5.85;;;3.72;;
42832;SDS011;64089;51.478;5.692;2023-04-01T05:08:39;5.90;;;4.30;;
42832;SDS011;64089;51.478;5.692;2023-04-01T05:11:07;7.45;;;3.55;;
42832;SDS011;64089;51.478;5.692;2023-04-01T05:13:35;7.50;;;3.55;;
42832;SDS011;64089;51.478;5.692;2023-04-01T05:16:01;8.05;;;4.60;;
42832;SDS011;64089;51.478;5.692;2023-04-01T05:18:27;5.43;;;3.17;;
42832;SDS011;64089;51.478;5.692;2023-04-01T05:20:53;8.18;;;3.85;;
42832;SDS011;64089;51.478;5.692;2023-04-01T05:23:20;5.32;;;3.65;;
42832;SDS011;64089;51.478;5.692;2023-04-01T05:25:49;9.15;;;4.03;;
42832;SDS011;64089;51.478;5.692;2023-04-01T05:28:17;5.60;;;3.30;;
42832;SDS011;64089;51.478;5.692;2023-04-01T05:30:44;5.63;;;2.88;;
42832;SDS011;64089;51.478;5.692;2023-04-01T05:33:10;4.90;;;2.83;;
42832;SDS011;64089;51.478;5.692;2023-04-01T05:35:37;8.60;;;3.05;;
42832;SDS011;64089;51.478;5.692;2023-04-01T05:38:04;4.70;;;2.90;;
42832;SDS011;64089;51.478;5.692;2023-04-01T05:40:30;4.93;;;3.15;;
42832;SDS011;64089;51.478;5.692;2023-04-01T05:42:56;4.68;;;3.05;;
42832;SDS011;64089;51.478;5.692;2023-04-01T05:45:22;4.78;;;3.35;;
42832;SDS011;64089;51.478;5.692;2023-04-01T05:47:47;5.80;;;2.83;;
42832;SDS011;64089;51.478;5.692;2023-04-01T05:50:13;5.28;;;3.22;;
42832;SDS011;64089;51.478;5.692;2023-04-01T05:52:40;5.20;;;2.88;;
42832;SDS011;64089;51.478;5.692;2023-04-01T05:55:05;6.03;;;2.72;;
42832;SDS011;64089;51.478;5.692;2023-04-01T05:57:31;4.53;;;2.78;;
42832;SDS011;64089;51.478;5.692;2023-04-01T05:59:57;6.15;;;3.47;;
42832;SDS011;64089;51.478;5.692;2023-04-01T06:02:23;6.07;;;2.38;;
42832;SDS011;64089;51.478;5.692;2023-04-01T06:04:48;4.13;;;2.58;;
42832;SDS011;64089;51.478;5.692;2023-04-01T06:07:18;3.70;;;2.35;;
42832;SDS011;64089;51.478;5.692;2023-04-01T06:09:44;3.97;;;2.22;;
42832;SDS011;64089;51.478;5.692;2023-04-01T06:12:15;6.30;;;2.63;;
42832;SDS011;64089;51.478;5.692;2023-04-01T06:22:41;4.97;;;3.13;;
42832;SDS011;64089;51.478;5.692;2023-04-01T06:25:24;7.30;;;3.17;;
42832;SDS011;64089;51.478;5.692;2023-04-01T06:30:47;6.15;;;3.65;;
42832;SDS011;64089;51.478;5.692;2023-04-01T06:33:40;5.47;;;3.25;;
42832;SDS011;64089;51.478;5.692;2023-04-01T06:58:06;8.73;;;3.95;;
42832;SDS011;64089;51.478;5.692;2023-04-01T07:00:42;9.68;;;4.15;;
42832;SDS011;64089;51.478;5.692;2023-04-01T07:05:54;7.53;;;3.15;;
42832;SDS011;64089;51.478;5.692;2023-04-01T07:08:24;5.57;;;3.90;;
42832;SDS011;64089;51.478;5.692;2023-04-01T07:10:54;9.00;;;4.57;;
42832;SDS011;64089;51.478;5.692;2023-04-01T07:13:49;12.07;;;5.35;;
42832;SDS011;64089;51.478;5.692;2023-04-01T07:16:32;8.63;;;4.88;;
42832;SDS011;64089;51.478;5.692;2023-04-01T07:21:43;14.00;;;5.97;;
42832;SDS011;64089;51.478;5.692;2023-04-01T07:27:08;16.80;;;6.53;;
42832;SDS011;64089;51.478;5.692;2023-04-01T07:29:35;12.48;;;7.10;;
42832;SDS011;64089;51.478;5.692;2023-04-01T07:32:09;14.70;;;6.80;;
42832;SDS011;64089;51.478;5.692;2023-04-01T07:41:11;13.88;;;7.45;;
42832;SDS011;64089;51.478;5.692;2023-04-01T07:49:39;25.75;;;8.00;;
42832;SDS011;64089;51.478;5.692;2023-04-01T07:52:24;17.10;;;8.45;;
42832;SDS011;64089;51.478;5.692;2023-04-01T08:05:41;20.15;;;8.20;;
42832;SDS011;64089;51.478;5.692;2023-04-01T08:11:01;23.98;;;9.35;;
42832;SDS011;64089;51.478;5.692;2023-04-01T08:13:46;20.05;;;9.23;;
42832;SDS011;64089;51.478;5.692;2023-04-01T08:22:07;31.30;;;9.88;;
42832;SDS011;64089;51.478;5.692;2023-04-01T08:24:43;17.55;;;10.10;;
42832;SDS011;64089;51.478;5.692;2023-04-01T08:27:20;22.75;;;10.38;;
42832;SDS011;64089;51.478;5.692;2023-04-01T08:29:51;21.48;;;10.23;;
42832;SDS011;64089;51.478;5.692;2023-04-01T08:32:26;22.75;;;10.68;;
42832;SDS011;64089;51.478;5.692;2023-04-01T08:37:43;22.88;;;9.65;;
42832;SDS011;64089;51.478;5.692;2023-04-01T09:02:53;17.30;;;9.60;;
42832;SDS011;64089;51.478;5.692;2023-04-01T09:11:11;21.35;;;9.85;;
42832;SDS011;64089;51.478;5.692;2023-04-01T09:26:06;16.45;;;7.95;;
42832;SDS011;64089;51.478;5.692;2023-04-01T09:31:59;15.80;;;8.82;;
42832;SDS011;64089;51.478;5.692;2023-04-01T09:43:22;15.82;;;8.13;;
42832;SDS011;64089;51.478;5.692;2023-04-01T09:52:09;11.68;;;5.80;;
42832;SDS011;64089;51.478;5.692;2023-04-01T10:05:57;12.95;;;5.93;;
42832;SDS011;64089;51.478;5.692;2023-04-01T10:14:25;7.38;;;4.40;;
42832;SDS011;64089;51.478;5.692;2023-04-01T10:17:18;6.90;;;4.60;;
42832;SDS011;64089;51.478;5.692;2023-04-01T10:38:45;10.00;;;6.32;;
42832;SDS011;64089;51.478;5.692;2023-04-01T10:52:45;10.95;;;6.22;;
42832;SDS011;64089;51.478;5.692;2023-04-01T11:27:15;15.10;;;6.78;;
42832;SDS011;64089;51.478;5.692;2023-04-01T11:30:01;17.67;;;8.20;;
42832;SDS011;64089;51.478;5.692;2023-04-01T11:38:22;15.45;;;8.20;;
42832;SDS011;64089;51.478;5.692;2023-04-01T11:49:25;14.00;;;7.72;;
42832;SDS011;64089;51.478;5.692;2023-04-01T11:54:47;14.40;;;7.88;;
42832;SDS011;64089;51.478;5.692;2023-04-01T11:57:38;16.13;;;7.67;;
42832;SDS011;64089;51.478;5.692;2023-04-01T12:00:21;15.00;;;7.72;;
42832;SDS011;64089;51.478;5.692;2023-04-01T12:03:14;23.30;;;9.98;;
42832;SDS011;64089;51.478;5.692;2023-04-01T12:08:31;18.20;;;9.18;;
42832;SDS011;64089;51.478;5.692;2023-04-01T12:11:17;14.00;;;8.02;;
42832;SDS011;64089;51.478;5.692;2023-04-01T12:14:10;20.73;;;8.65;;
42832;SDS011;64089;51.478;5.692;2023-04-01T12:16:46;16.77;;;7.75;;
42832;SDS011;64089;51.478;5.692;2023-04-01T12:19:26;16.05;;;8.23;;
42832;SDS011;64089;51.478;5.692;2023-04-01T12:22:20;12.68;;;7.80;;
42832;SDS011;64089;51.478;5.692;2023-04-01T12:25:03;14.30;;;6.72;;
42832;SDS011;64089;51.478;5.692;2023-04-01T12:27:45;12.77;;;6.68;;
42832;SDS011;64089;51.478;5.692;2023-04-01T12:30:49;10.02;;;5.53;;
42832;SDS011;64089;51.478;5.692;2023-04-01T12:42:10;11.77;;;4.90;;
42832;SDS011;64089;51.478;5.692;2023-04-01T12:50:10;8.38;;;4.40;;
42832;SDS011;64089;51.478;5.692;2023-04-01T13:33:38;10.23;;;6.32;;
42832;SDS011;64089;51.478;5.692;2023-04-01T13:36:20;11.27;;;6.13;;
42832;SDS011;64089;51.478;5.692;2023-04-01T13:44:46;15.00;;;6.25;;
42832;SDS011;64089;51.478;5.692;2023-04-01T13:53:02;12.27;;;5.90;;
42832;SDS011;64089;51.478;5.692;2023-04-01T13:55:35;9.13;;;5.38;;
42832;SDS011;64089;51.478;5.692;2023-04-01T14:17:10;9.90;;;6.35;;
42832;SDS011;64089;51.478;5.692;2023-04-01T14:20:02;11.10;;;5.75;;
42832;SDS011;64089;51.478;5.692;2023-04-01T14:30:45;12.20;;;5.82;;
42832;SDS011;64089;51.478;5.692;2023-04-01T14:50:40;13.30;;;7.13;;
42832;SDS011;64089;51.478;5.692;2023-04-01T14:55:59;13.30;;;7.07;;
42832;SDS011;64089;51.478;5.692;2023-04-01T14:58:44;10.90;;;6.07;;
42832;SDS011;64089;51.478;5.692;2023-04-01T15:22:43;9.85;;;5.80;;
42832;SDS011;64089;51.478;5.692;2023-04-01T15:25:39;10.00;;;5.80;;
42832;SDS011;64089;51.478;5.692;2023-04-01T15:31:09;9.30;;;6.35;;
42832;SDS011;64089;51.478;5.692;2023-04-01T15:39:27;15.60;;;6.90;;
42832;SDS011;64089;51.478;5.692;2023-04-01T15:42:28;13.35;;;6.60;;
42832;SDS011;64089;51.478;5.692;2023-04-01T15:55:00;11.10;;;6.60;;
42832;SDS011;64089;51.478;5.692;2023-04-01T15:58:02;14.45;;;6.75;;
42832;SDS011;64089;51.478;5.692;2023-04-01T16:00:30;13.60;;;7.60;;
42832;SDS011;64089;51.478;5.692;2023-04-01T16:13:54;11.73;;;7.18;;
42832;SDS011;64089;51.478;5.692;2023-04-01T16:16:35;14.38;;;8.18;;
42832;SDS011;64089;51.478;5.692;2023-04-01T16:22:13;12.65;;;6.90;;
42832;SDS011;64089;51.478;5.692;2023-04-01T16:24:50;14.75;;;7.57;;
42832;SDS011;64089;51.478;5.692;2023-04-01T16:41:01;13.23;;;7.85;;
42832;SDS011;64089;51.478;5.692;2023-04-01T16:43:43;12.18;;;7.10;;
42832;SDS011;64089;51.478;5.692;2023-04-01T16:46:38;12.32;;;7.35;;
42832;SDS011;64089;51.478;5.692;2023-04-01T16:54:17;16.95;;;8.02;;
42832;SDS011;64089;51.478;5.692;2023-04-01T17:04:43;10.73;;;6.95;;
42832;SDS011;64089;51.478;5.692;2023-04-01T17:07:19;12.85;;;7.38;;
42832;SDS011;64089;51.478;5.692;2023-04-01T17:12:40;10.52;;;6.78;;
42832;SDS011;64089;51.478;5.692;2023-04-01T17:17:51;10.95;;;6.35;;
42832;SDS011;64089;51.478;5.692;2023-04-01T17:20:43;11.75;;;6.82;;
42832;SDS011;64089;51.478;5.692;2023-04-01T17:23:32;10.13;;;5.78;;
42832;SDS011;64089;51.478;5.692;2023-04-01T17:26:32;12.35;;;6.43;;
42832;SDS011;64089;51.478;5.692;2023-04-01T17:29:24;11.68;;;6.82;;
42832;SDS011;64089;51.478;5.692;2023-04-01T17:43:15;12.48;;;6.07;;
42832;SDS011;64089;51.478;5.692;2023-04-01T17:45:55;11.40;;;6.60;;
42832;SDS011;64089;51.478;5.692;2023-04-01T17:59:53;10.88;;;6.30;;
42832;SDS011;64089;51.478;5.692;2023-04-01T18:07:50;12.35;;;6.10;;
42832;SDS011;64089;51.478;5.692;2023-04-01T18:18:47;10.73;;;5.57;;
42832;SDS011;64089;51.478;5.692;2023-04-01T18:27:02;13.43;;;5.40;;
42832;SDS011;64089;51.478;5.692;2023-04-01T18:38:31;7.55;;;4.40;;
42832;SDS011;64089;51.478;5.692;2023-04-01T18:43:41;7.95;;;3.88;;
42832;SDS011;64089;51.478;5.692;2023-04-01T18:49:25;4.57;;;3.03;;
42832;SDS011;64089;51.478;5.692;2023-04-01T18:52:25;6.57;;;3.58;;
42832;SDS011;64089;51.478;5.692;2023-04-01T19:00:19;7.78;;;3.83;;
42832;SDS011;64089;51.478;5.692;2023-04-01T19:05:48;6.00;;;3.35;;
42832;SDS011;64089;51.478;5.692;2023-04-01T19:16:31;8.27;;;4.53;;
42832;SDS011;64089;51.478;5.692;2023-04-01T19:19:21;7.47;;;3.83;;
42832;SDS011;64089;51.478;5.692;2023-04-01T19:24:40;7.50;;;3.88;;
42832;SDS011;64089;51.478;5.692;2023-04-01T19:30:08;8.23;;;4.85;;
42832;SDS011;64089;51.478;5.692;2023-04-01T19:35:21;13.13;;;6.18;;
42832;SDS011;64089;51.478;5.692;2023-04-01T19:49:07;10.07;;;5.85;;
42832;SDS011;64089;51.478;5.692;2023-04-01T19:51:42;10.25;;;5.45;;
42832;SDS011;64089;51.478;5.692;2023-04-01T20:04:38;11.82;;;6.82;;
42832;SDS011;64089;51.478;5.692;2023-04-01T20:07:17;15.65;;;7.47;;
42832;SDS011;64089;51.478;5.692;2023-04-01T20:18:16;12.63;;;6.32;;
42832;SDS011;64089;51.478;5.692;2023-04-01T20:20:57;14.20;;;6.88;;
42832;SDS011;64089;51.478;5.692;2023-04-01T20:23:30;11.53;;;6.57;;
42832;SDS011;64089;51.478;5.692;2023-04-01T20:26:20;9.32;;;5.93;;
42832;SDS011;64089;51.478;5.692;2023-04-01T20:29:04;11.02;;;6.03;;
42832;SDS011;64089;51.478;5.692;2023-04-01T20:31:37;11.73;;;5.90;;
42832;SDS011;64089;51.478;5.692;2023-04-01T20:45:37;10.02;;;6.10;;
42832;SDS011;64089;51.478;5.692;2023-04-01T20:51:18;11.13;;;6.15;;
42832;SDS011;64089;51.478;5.692;2023-04-01T20:56:30;10.57;;;5.80;;
42832;SDS011;64089;51.478;5.692;2023-04-01T21:01:44;15.50;;;6.38;;
42832;SDS011;64089;51.478;5.692;2023-04-01T21:15:34;15.27;;;7.55;;
42832;SDS011;64089;51.478;5.692;2023-04-01T21:18:24;11.13;;;6.65;;
42832;SDS011;64089;51.478;5.692;2023-04-01T21:21:30;12.82;;;6.68;;
42832;SDS011;64089;51.478;5.692;2023-04-01T21:35:11;13.40;;;7.40;;
42832;SDS011;64089;51.478;5.692;2023-04-01T21:48:46;11.45;;;6.63;;
42832;SDS011;64089;51.478;5.692;2023-04-01T21:51:26;13.77;;;6.50;;
42832;SDS011;64089;51.478;5.692;2023-04-01T22:05:27;11.43;;;6.85;;
42832;SDS011;64089;51.478;5.692;2023-04-01T22:08:35;12.27;;;6.80;;
42832;SDS011;64089;51.478;5.692;2023-04-01T22:21:56;14.50;;;7.72;;
42832;SDS011;64089;51.478;5.692;2023-04-01T22:24:32;12.32;;;7.20;;
42832;SDS011;64089;51.478;5.692;2023-04-01T22:32:26;11.70;;;7.28;;
42832;SDS011;64089;51.478;5.692;2023-04-01T22:41:05;13.65;;;6.13;;
42832;SDS011;64089;51.478;5.692;2023-04-01T22:43:51;11.73;;;6.97;;
42832;SDS011;64089;51.478;5.692;2023-04-01T22:51:54;13.93;;;7.72;;
42832;SDS011;64089;51.478;5.692;2023-04-01T22:57:07;12.75;;;7.20;;
42832;SDS011;64089;51.478;5.692;2023-04-01T22:59:58;11.27;;;6.97;;
42832;SDS011;64089;51.478;5.692;2023-04-01T23:02:59;16.35;;;7.40;;
42832;SDS011;64089;51.478;5.692;2023-04-01T23:05:30;13.48;;;7.07;;
42832;SDS011;64089;51.478;5.692;2023-04-01T23:10:44;12.18;;;6.22;;
42832;SDS011;64089;51.478;5.692;2023-04-01T23:16:32;10.52;;;6.28;;
42832;SDS011;64089;51.478;5.692;2023-04-01T23:19:12;12.93;;;7.22;;
42832;SDS011;64089;51.478;5.692;2023-04-01T23:24:53;10.93;;;5.50;;
42832;SDS011;64089;51.478;5.692;2023-04-01T23:27:33;11.90;;;6.43;;
42832;SDS011;64089;51.478;5.692;2023-04-01T23:35:47;11.63;;;6.03;;
42832;SDS011;64089;51.478;5.692;2023-04-01T23:38:24;8.38;;;5.28;;
42832;SDS011;64089;51.478;5.692;2023-04-01T23:40:51;9.20;;;5.43;;
42832;SDS011;64089;51.478;5.692;2023-04-01T23:43:24;8.85;;;5.38;;
42832;SDS011;64089;51.478;5.692;2023-04-01T23:45:55;8.93;;;5.28;;
42832;SDS011;64089;51.478;5.692;2023-04-01T23:48:24;9.40;;;5.30;;
42832;SDS011;64089;51.478;5.692;2023-04-01T23:50:57;8.15;;;4.95;;
42832;SDS011;64089;51.478;5.692;2023-04-01T23:53:24;9.18;;;5.45;;
42832;SDS011;64089;51.478;5.692;2023-04-01T23:55:53;11.05;;;5.55;;
42832;SDS011;64089;51.478;5.692;2023-04-01T23:58:23;8.02;;;5.20;;
